sensor_id;sensor_type;location;lat;lon;timestamp;P1;durP1;ratioP1;P2;durP2;ratioP2
44722;SDS011;30451;48.638;10.624;2022-10-20T00:00:25;1.23;;;1.00;;
44722;SDS011;30451;48.638;10.624;2022-10-20T00:02:50;1.40;;;1.00;;
44722;SDS011;30451;48.638;10.624;2022-10-20T00:05:16;1.63;;;1.00;;
44722;SDS011;30451;48.638;10.624;2022-10-20T00:07:41;1.52;;;1.05;;
44722;SDS011;30451;48.638;10.624;2022-10-20T00:10:07;1.13;;;1.00;;
44722;SDS011;30451;48.638;10.624;2022-10-20T00:12:33;1.75;;;1.05;;
44722;SDS011;30451;48.638;10.624;2022-10-20T00:14:59;1.17;;;0.90;;
44722;SDS011;30451;48.638;10.624;2022-10-20T00:17:24;1.52;;;0.95;;
44722;SDS011;30451;48.638;10.624;2022-10-20T00:19:50;1.15;;;0.80;;
44722;SDS011;30451;48.638;10.624;2022-10-20T00:22:15;1.25;;;1.13;;
44722;SDS011;30451;48.638;10.624;2022-10-20T00:24:41;1.85;;;1.20;;
44722;SDS011;30451;48.638;10.624;2022-10-20T00:27:07;1.40;;;0.90;;
44722;SDS011;30451;48.638;10.624;2022-10-20T00:29:33;1.05;;;0.85;;
44722;SDS011;30451;48.638;10.624;2022-10-20T00:31:59;1.17;;;0.93;;
44722;SDS011;30451;48.638;10.624;2022-10-20T00:34:24;1.25;;;0.80;;
44722;SDS011;30451;48.638;10.624;2022-10-20T00:36:50;1.58;;;0.90;;
44722;SDS011;30451;48.638;10.624;2022-10-20T00:39:15;1.00;;;0.90;;
44722;SDS011;30451;48.638;10.624;2022-10-20T00:41:41;1.73;;;0.90;;
44722;SDS011;30451;48.638;10.624;2022-10-20T00:47:13;1.17;;;0.90;;
44722;SDS011;30451;48.638;10.624;2022-10-20T00:49:46;1.27;;;0.90;;
44722;SDS011;30451;48.638;10.624;2022-10-20T00:52:13;1.52;;;0.93;;
44722;SDS011;30451;48.638;10.624;2022-10-20T00:57:08;2.55;;;1.20;;
44722;SDS011;30451;48.638;10.624;2022-10-20T00:59:34;1.70;;;1.10;;
44722;SDS011;30451;48.638;10.624;2022-10-20T01:02:01;1.30;;;0.90;;
44722;SDS011;30451;48.638;10.624;2022-10-20T01:04:29;1.05;;;0.90;;
44722;SDS011;30451;48.638;10.624;2022-10-20T01:06:56;0.90;;;0.80;;
44722;SDS011;30451;48.638;10.624;2022-10-20T01:09:22;1.30;;;1.00;;
44722;SDS011;30451;48.638;10.624;2022-10-20T01:11:51;1.35;;;1.00;;
44722;SDS011;30451;48.638;10.624;2022-10-20T01:15:11;1.50;;;1.00;;
44722;SDS011;30451;48.638;10.624;2022-10-20T01:28:41;1.27;;;1.10;;
44722;SDS011;30451;48.638;10.624;2022-10-20T01:31:21;1.40;;;0.90;;
44722;SDS011;30451;48.638;10.624;2022-10-20T01:34:14;1.27;;;0.88;;
44722;SDS011;30451;48.638;10.624;2022-10-20T01:37:01;1.40;;;1.00;;
44722;SDS011;30451;48.638;10.624;2022-10-20T01:39:43;1.23;;;1.00;;
44722;SDS011;30451;48.638;10.624;2022-10-20T01:42:19;1.48;;;1.00;;
44722;SDS011;30451;48.638;10.624;2022-10-20T01:44:47;1.90;;;1.10;;
44722;SDS011;30451;48.638;10.624;2022-10-20T01:47:13;1.10;;;0.90;;
44722;SDS011;30451;48.638;10.624;2022-10-20T01:49:41;1.17;;;1.00;;
44722;SDS011;30451;48.638;10.624;2022-10-20T01:52:11;1.55;;;1.00;;
44722;SDS011;30451;48.638;10.624;2022-10-20T01:54:37;1.88;;;0.95;;
44722;SDS011;30451;48.638;10.624;2022-10-20T01:57:17;1.38;;;1.00;;
44722;SDS011;30451;48.638;10.624;2022-10-20T02:08:35;1.58;;;1.13;;
44722;SDS011;30451;48.638;10.624;2022-10-20T02:11:19;1.27;;;1.00;;
44722;SDS011;30451;48.638;10.624;2022-10-20T02:14:03;1.45;;;1.02;;
44722;SDS011;30451;48.638;10.624;2022-10-20T02:16:32;1.30;;;1.08;;
44722;SDS011;30451;48.638;10.624;2022-10-20T02:19:00;1.60;;;1.00;;
44722;SDS011;30451;48.638;10.624;2022-10-20T02:21:28;1.20;;;1.10;;
44722;SDS011;30451;48.638;10.624;2022-10-20T02:23:54;1.80;;;1.10;;
44722;SDS011;30451;48.638;10.624;2022-10-20T02:26:24;1.20;;;0.98;;
44722;SDS011;30451;48.638;10.624;2022-10-20T02:28:54;1.30;;;1.10;;
44722;SDS011;30451;48.638;10.624;2022-10-20T02:31:24;1.33;;;0.98;;
44722;SDS011;30451;48.638;10.624;2022-10-20T02:33:50;1.17;;;0.90;;
44722;SDS011;30451;48.638;10.624;2022-10-20T02:36:19;1.33;;;0.90;;
44722;SDS011;30451;48.638;10.624;2022-10-20T02:38:49;1.48;;;1.02;;
44722;SDS011;30451;48.638;10.624;2022-10-20T02:41:14;1.30;;;1.10;;
44722;SDS011;30451;48.638;10.624;2022-10-20T02:43:40;1.10;;;0.90;;
44722;SDS011;30451;48.638;10.624;2022-10-20T02:46:06;1.45;;;1.02;;
44722;SDS011;30451;48.638;10.624;2022-10-20T02:48:31;1.35;;;0.90;;
44722;SDS011;30451;48.638;10.624;2022-10-20T02:50:57;1.45;;;1.10;;
44722;SDS011;30451;48.638;10.624;2022-10-20T02:53:22;1.13;;;1.02;;
44722;SDS011;30451;48.638;10.624;2022-10-20T02:55:48;1.00;;;0.90;;
44722;SDS011;30451;48.638;10.624;2022-10-20T02:58:14;1.52;;;1.02;;
44722;SDS011;30451;48.638;10.624;2022-10-20T03:00:39;1.42;;;1.00;;
44722;SDS011;30451;48.638;10.624;2022-10-20T03:03:05;1.23;;;0.95;;
44722;SDS011;30451;48.638;10.624;2022-10-20T03:05:31;1.45;;;0.93;;
44722;SDS011;30451;48.638;10.624;2022-10-20T03:07:56;1.20;;;1.00;;
44722;SDS011;30451;48.638;10.624;2022-10-20T03:10:22;1.20;;;1.00;;
44722;SDS011;30451;48.638;10.624;2022-10-20T03:12:47;1.73;;;1.10;;
44722;SDS011;30451;48.638;10.624;2022-10-20T03:15:13;1.20;;;1.00;;
44722;SDS011;30451;48.638;10.624;2022-10-20T03:17:39;1.08;;;0.90;;
44722;SDS011;30451;48.638;10.624;2022-10-20T03:20:04;1.27;;;1.00;;
44722;SDS011;30451;48.638;10.624;2022-10-20T03:22:30;1.35;;;1.00;;
44722;SDS011;30451;48.638;10.624;2022-10-20T03:24:56;1.27;;;1.02;;
44722;SDS011;30451;48.638;10.624;2022-10-20T03:27:22;1.27;;;1.00;;
44722;SDS011;30451;48.638;10.624;2022-10-20T03:29:47;1.30;;;1.00;;
44722;SDS011;30451;48.638;10.624;2022-10-20T03:32:13;1.33;;;1.10;;
44722;SDS011;30451;48.638;10.624;2022-10-20T03:34:38;1.10;;;1.00;;
44722;SDS011;30451;48.638;10.624;2022-10-20T03:37:04;1.17;;;1.00;;
44722;SDS011;30451;48.638;10.624;2022-10-20T03:39:29;1.50;;;1.02;;
44722;SDS011;30451;48.638;10.624;2022-10-20T03:41:55;1.52;;;1.10;;
44722;SDS011;30451;48.638;10.624;2022-10-20T03:44:22;1.95;;;1.10;;
44722;SDS011;30451;48.638;10.624;2022-10-20T03:46:48;2.10;;;1.00;;
44722;SDS011;30451;48.638;10.624;2022-10-20T03:49:14;1.30;;;1.00;;
44722;SDS011;30451;48.638;10.624;2022-10-20T03:51:40;1.77;;;1.20;;
44722;SDS011;30451;48.638;10.624;2022-10-20T03:54:05;1.63;;;1.10;;
44722;SDS011;30451;48.638;10.624;2022-10-20T03:56:31;1.73;;;1.20;;
44722;SDS011;30451;48.638;10.624;2022-10-20T03:58:57;1.63;;;1.00;;
44722;SDS011;30451;48.638;10.624;2022-10-20T04:01:23;1.90;;;1.20;;
44722;SDS011;30451;48.638;10.624;2022-10-20T04:03:54;1.98;;;1.10;;
44722;SDS011;30451;48.638;10.624;2022-10-20T04:06:19;1.70;;;1.20;;
44722;SDS011;30451;48.638;10.624;2022-10-20T04:08:45;1.88;;;1.20;;
44722;SDS011;30451;48.638;10.624;2022-10-20T04:11:10;2.22;;;1.35;;
44722;SDS011;30451;48.638;10.624;2022-10-20T04:13:36;2.85;;;1.25;;
44722;SDS011;30451;48.638;10.624;2022-10-20T04:16:02;2.35;;;1.20;;
44722;SDS011;30451;48.638;10.624;2022-10-20T04:18:28;1.85;;;1.38;;
44722;SDS011;30451;48.638;10.624;2022-10-20T04:20:54;1.80;;;1.10;;
44722;SDS011;30451;48.638;10.624;2022-10-20T04:23:19;1.85;;;1.27;;
44722;SDS011;30451;48.638;10.624;2022-10-20T04:25:45;2.15;;;1.33;;
44722;SDS011;30451;48.638;10.624;2022-10-20T04:28:13;2.08;;;1.33;;
44722;SDS011;30451;48.638;10.624;2022-10-20T04:30:39;1.55;;;1.10;;
44722;SDS011;30451;48.638;10.624;2022-10-20T04:33:05;1.80;;;1.20;;
44722;SDS011;30451;48.638;10.624;2022-10-20T04:35:31;2.35;;;1.40;;
44722;SDS011;30451;48.638;10.624;2022-10-20T04:37:57;2.28;;;1.30;;
44722;SDS011;30451;48.638;10.624;2022-10-20T04:40:23;2.00;;;1.20;;
44722;SDS011;30451;48.638;10.624;2022-10-20T04:42:49;2.33;;;1.40;;
44722;SDS011;30451;48.638;10.624;2022-10-20T04:45:14;2.17;;;1.35;;
44722;SDS011;30451;48.638;10.624;2022-10-20T04:47:40;2.03;;;1.40;;
44722;SDS011;30451;48.638;10.624;2022-10-20T04:50:06;2.05;;;1.20;;
44722;SDS011;30451;48.638;10.624;2022-10-20T04:52:32;1.38;;;1.10;;
44722;SDS011;30451;48.638;10.624;2022-10-20T04:54:58;2.47;;;1.40;;
44722;SDS011;30451;48.638;10.624;2022-10-20T04:57:24;2.78;;;1.50;;
44722;SDS011;30451;48.638;10.624;2022-10-20T04:59:49;1.73;;;1.20;;
44722;SDS011;30451;48.638;10.624;2022-10-20T05:02:15;1.98;;;1.30;;
44722;SDS011;30451;48.638;10.624;2022-10-20T05:04:41;2.45;;;1.50;;
44722;SDS011;30451;48.638;10.624;2022-10-20T05:07:07;1.90;;;1.30;;
44722;SDS011;30451;48.638;10.624;2022-10-20T05:09:33;2.53;;;1.70;;
44722;SDS011;30451;48.638;10.624;2022-10-20T05:11:58;2.75;;;1.25;;
44722;SDS011;30451;48.638;10.624;2022-10-20T05:14:24;2.10;;;1.55;;
44722;SDS011;30451;48.638;10.624;2022-10-20T05:16:50;2.45;;;1.48;;
44722;SDS011;30451;48.638;10.624;2022-10-20T05:19:16;2.38;;;1.30;;
44722;SDS011;30451;48.638;10.624;2022-10-20T05:21:41;2.80;;;1.30;;
44722;SDS011;30451;48.638;10.624;2022-10-20T05:24:10;2.10;;;1.45;;
44722;SDS011;30451;48.638;10.624;2022-10-20T05:26:38;1.90;;;1.40;;
44722;SDS011;30451;48.638;10.624;2022-10-20T05:29:04;1.88;;;1.20;;
44722;SDS011;30451;48.638;10.624;2022-10-20T05:31:39;1.50;;;0.90;;
44722;SDS011;30451;48.638;10.624;2022-10-20T05:34:06;2.38;;;1.20;;
44722;SDS011;30451;48.638;10.624;2022-10-20T05:36:32;2.13;;;1.30;;
44722;SDS011;30451;48.638;10.624;2022-10-20T05:38:58;2.15;;;1.20;;
44722;SDS011;30451;48.638;10.624;2022-10-20T05:41:24;2.90;;;1.20;;
44722;SDS011;30451;48.638;10.624;2022-10-20T05:43:53;1.38;;;1.00;;
44722;SDS011;30451;48.638;10.624;2022-10-20T05:46:23;1.83;;;1.00;;
44722;SDS011;30451;48.638;10.624;2022-10-20T05:48:54;1.90;;;1.25;;
44722;SDS011;30451;48.638;10.624;2022-10-20T05:51:23;2.05;;;1.30;;
44722;SDS011;30451;48.638;10.624;2022-10-20T05:53:50;2.40;;;1.30;;
44722;SDS011;30451;48.638;10.624;2022-10-20T05:56:18;1.67;;;1.33;;
44722;SDS011;30451;48.638;10.624;2022-10-20T05:58:45;2.47;;;1.08;;
44722;SDS011;30451;48.638;10.624;2022-10-20T06:01:16;2.92;;;1.48;;
44722;SDS011;30451;48.638;10.624;2022-10-20T06:03:55;2.53;;;1.30;;
44722;SDS011;30451;48.638;10.624;2022-10-20T06:06:23;4.03;;;1.20;;
44722;SDS011;30451;48.638;10.624;2022-10-20T06:08:54;3.58;;;1.35;;
44722;SDS011;30451;48.638;10.624;2022-10-20T06:11:21;1.55;;;1.00;;
44722;SDS011;30451;48.638;10.624;2022-10-20T06:13:47;1.63;;;0.98;;
44722;SDS011;30451;48.638;10.624;2022-10-20T06:16:14;1.77;;;1.20;;
44722;SDS011;30451;48.638;10.624;2022-10-20T06:18:42;1.67;;;1.20;;
44722;SDS011;30451;48.638;10.624;2022-10-20T06:21:18;1.77;;;1.30;;
44722;SDS011;30451;48.638;10.624;2022-10-20T06:23:48;2.35;;;1.40;;
44722;SDS011;30451;48.638;10.624;2022-10-20T06:26:18;1.92;;;1.33;;
44722;SDS011;30451;48.638;10.624;2022-10-20T06:28:49;2.25;;;1.40;;
44722;SDS011;30451;48.638;10.624;2022-10-20T06:31:21;2.17;;;1.33;;
44722;SDS011;30451;48.638;10.624;2022-10-20T06:33:49;2.35;;;1.40;;
44722;SDS011;30451;48.638;10.624;2022-10-20T06:36:16;2.97;;;1.33;;
44722;SDS011;30451;48.638;10.624;2022-10-20T06:38:43;2.63;;;1.77;;
44722;SDS011;30451;48.638;10.624;2022-10-20T06:41:13;2.10;;;1.40;;
44722;SDS011;30451;48.638;10.624;2022-10-20T06:43:41;2.10;;;1.40;;
44722;SDS011;30451;48.638;10.624;2022-10-20T06:46:09;1.90;;;1.30;;
44722;SDS011;30451;48.638;10.624;2022-10-20T06:48:37;3.38;;;1.30;;
44722;SDS011;30451;48.638;10.624;2022-10-20T06:51:04;1.90;;;1.20;;
44722;SDS011;30451;48.638;10.624;2022-10-20T06:53:33;2.60;;;1.42;;
44722;SDS011;30451;48.638;10.624;2022-10-20T06:56:00;2.30;;;1.42;;
44722;SDS011;30451;48.638;10.624;2022-10-20T06:58:30;2.05;;;1.40;;
44722;SDS011;30451;48.638;10.624;2022-10-20T07:01:04;1.67;;;1.17;;
44722;SDS011;30451;48.638;10.624;2022-10-20T07:03:31;1.58;;;1.23;;
44722;SDS011;30451;48.638;10.624;2022-10-20T07:05:58;1.70;;;1.33;;
44722;SDS011;30451;48.638;10.624;2022-10-20T07:08:28;2.60;;;1.40;;
44722;SDS011;30451;48.638;10.624;2022-10-20T07:13:25;2.65;;;1.65;;
44722;SDS011;30451;48.638;10.624;2022-10-20T07:15:53;3.10;;;1.63;;
44722;SDS011;30451;48.638;10.624;2022-10-20T07:18:19;2.88;;;1.48;;
44722;SDS011;30451;48.638;10.624;2022-10-20T07:20:45;2.30;;;1.60;;
44722;SDS011;30451;48.638;10.624;2022-10-20T07:23:11;2.45;;;1.60;;
44722;SDS011;30451;48.638;10.624;2022-10-20T07:25:36;1.88;;;1.20;;
44722;SDS011;30451;48.638;10.624;2022-10-20T07:28:02;1.42;;;1.13;;
44722;SDS011;30451;48.638;10.624;2022-10-20T07:30:28;2.15;;;1.50;;
44722;SDS011;30451;48.638;10.624;2022-10-20T07:32:53;1.70;;;1.38;;
44722;SDS011;30451;48.638;10.624;2022-10-20T07:35:19;2.22;;;1.50;;
44722;SDS011;30451;48.638;10.624;2022-10-20T07:37:45;2.88;;;1.50;;
44722;SDS011;30451;48.638;10.624;2022-10-20T07:40:10;2.08;;;1.40;;
44722;SDS011;30451;48.638;10.624;2022-10-20T07:42:36;2.97;;;1.50;;
44722;SDS011;30451;48.638;10.624;2022-10-20T07:45:02;1.85;;;1.30;;
44722;SDS011;30451;48.638;10.624;2022-10-20T07:47:28;3.17;;;1.30;;
44722;SDS011;30451;48.638;10.624;2022-10-20T07:49:53;1.70;;;1.25;;
44722;SDS011;30451;48.638;10.624;2022-10-20T07:52:19;2.42;;;1.30;;
44722;SDS011;30451;48.638;10.624;2022-10-20T07:54:44;2.15;;;1.20;;
44722;SDS011;30451;48.638;10.624;2022-10-20T07:57:10;1.73;;;1.27;;
44722;SDS011;30451;48.638;10.624;2022-10-20T07:59:36;1.83;;;1.15;;
44722;SDS011;30451;48.638;10.624;2022-10-20T08:02:01;2.05;;;1.30;;
44722;SDS011;30451;48.638;10.624;2022-10-20T08:04:27;1.63;;;1.23;;
44722;SDS011;30451;48.638;10.624;2022-10-20T08:06:55;2.25;;;1.23;;
44722;SDS011;30451;48.638;10.624;2022-10-20T08:09:21;1.77;;;1.30;;
44722;SDS011;30451;48.638;10.624;2022-10-20T08:11:47;2.03;;;1.30;;
44722;SDS011;30451;48.638;10.624;2022-10-20T08:14:12;2.10;;;1.42;;
44722;SDS011;30451;48.638;10.624;2022-10-20T08:16:38;2.47;;;1.60;;
44722;SDS011;30451;48.638;10.624;2022-10-20T08:19:03;2.70;;;1.40;;
44722;SDS011;30451;48.638;10.624;2022-10-20T08:21:29;2.22;;;1.40;;
44722;SDS011;30451;48.638;10.624;2022-10-20T08:23:55;1.83;;;1.38;;
44722;SDS011;30451;48.638;10.624;2022-10-20T08:26:21;2.22;;;1.42;;
44722;SDS011;30451;48.638;10.624;2022-10-20T08:28:49;1.85;;;1.30;;
44722;SDS011;30451;48.638;10.624;2022-10-20T08:31:16;2.00;;;1.48;;
44722;SDS011;30451;48.638;10.624;2022-10-20T08:33:41;1.67;;;1.30;;
44722;SDS011;30451;48.638;10.624;2022-10-20T08:36:08;2.20;;;1.42;;
44722;SDS011;30451;48.638;10.624;2022-10-20T08:38:36;2.05;;;1.40;;
44722;SDS011;30451;48.638;10.624;2022-10-20T08:41:03;2.60;;;1.70;;
44722;SDS011;30451;48.638;10.624;2022-10-20T08:43:30;2.08;;;1.35;;
44722;SDS011;30451;48.638;10.624;2022-10-20T08:46:00;2.13;;;1.50;;
44722;SDS011;30451;48.638;10.624;2022-10-20T08:48:27;1.80;;;1.40;;
44722;SDS011;30451;48.638;10.624;2022-10-20T08:50:56;2.22;;;1.60;;
44722;SDS011;30451;48.638;10.624;2022-10-20T08:53:22;1.75;;;1.40;;
44722;SDS011;30451;48.638;10.624;2022-10-20T08:55:50;2.22;;;1.30;;
44722;SDS011;30451;48.638;10.624;2022-10-20T08:58:18;2.25;;;1.45;;
44722;SDS011;30451;48.638;10.624;2022-10-20T09:00:46;1.92;;;1.40;;
44722;SDS011;30451;48.638;10.624;2022-10-20T09:03:21;2.33;;;1.47;;
44722;SDS011;30451;48.638;10.624;2022-10-20T09:05:53;1.80;;;1.30;;
44722;SDS011;30451;48.638;10.624;2022-10-20T09:08:39;2.07;;;1.40;;
44722;SDS011;30451;48.638;10.624;2022-10-20T09:11:08;2.40;;;1.50;;
44722;SDS011;30451;48.638;10.624;2022-10-20T09:13:38;2.05;;;1.50;;
44722;SDS011;30451;48.638;10.624;2022-10-20T09:16:09;1.98;;;1.30;;
44722;SDS011;30451;48.638;10.624;2022-10-20T09:18:50;2.00;;;1.33;;
44722;SDS011;30451;48.638;10.624;2022-10-20T09:21:19;1.58;;;1.20;;
44722;SDS011;30451;48.638;10.624;2022-10-20T09:23:53;2.15;;;1.50;;
44722;SDS011;30451;48.638;10.624;2022-10-20T09:26:22;1.67;;;1.30;;
44722;SDS011;30451;48.638;10.624;2022-10-20T09:29:04;1.85;;;1.38;;
44722;SDS011;30451;48.638;10.624;2022-10-20T09:31:35;1.55;;;1.00;;
44722;SDS011;30451;48.638;10.624;2022-10-20T09:34:19;2.55;;;1.67;;
44722;SDS011;30451;48.638;10.624;2022-10-20T09:36:49;2.35;;;1.40;;
44722;SDS011;30451;48.638;10.624;2022-10-20T09:41:47;2.30;;;1.58;;
44722;SDS011;30451;48.638;10.624;2022-10-20T09:44:15;2.63;;;1.65;;
44722;SDS011;30451;48.638;10.624;2022-10-20T09:46:49;2.35;;;1.55;;
44722;SDS011;30451;48.638;10.624;2022-10-20T09:51:56;2.67;;;1.80;;
44722;SDS011;30451;48.638;10.624;2022-10-20T09:54:24;2.55;;;1.70;;
44722;SDS011;30451;48.638;10.624;2022-10-20T09:56:50;2.70;;;1.70;;
44722;SDS011;30451;48.638;10.624;2022-10-20T09:59:18;2.50;;;1.70;;
44722;SDS011;30451;48.638;10.624;2022-10-20T10:01:57;2.30;;;1.70;;
44722;SDS011;30451;48.638;10.624;2022-10-20T10:04:31;2.67;;;1.73;;
44722;SDS011;30451;48.638;10.624;2022-10-20T10:06:57;2.45;;;1.52;;
44722;SDS011;30451;48.638;10.624;2022-10-20T10:09:31;2.40;;;1.70;;
44722;SDS011;30451;48.638;10.624;2022-10-20T10:12:11;2.00;;;1.60;;
44722;SDS011;30451;48.638;10.624;2022-10-20T10:14:51;2.40;;;1.77;;
44722;SDS011;30451;48.638;10.624;2022-10-20T10:17:29;2.72;;;1.67;;
44722;SDS011;30451;48.638;10.624;2022-10-20T10:20:27;2.40;;;1.60;;
44722;SDS011;30451;48.638;10.624;2022-10-20T10:22:48;2.13;;;1.52;;
44722;SDS011;30451;48.638;10.624;2022-10-20T10:25:24;3.00;;;1.98;;
44722;SDS011;30451;48.638;10.624;2022-10-20T10:27:58;3.05;;;2.00;;
44722;SDS011;30451;48.638;10.624;2022-10-20T10:30:35;2.30;;;1.50;;
44722;SDS011;30451;48.638;10.624;2022-10-20T10:33:17;2.45;;;1.70;;
44722;SDS011;30451;48.638;10.624;2022-10-20T10:35:49;2.20;;;1.42;;
44722;SDS011;30451;48.638;10.624;2022-10-20T10:38:16;2.72;;;1.73;;
44722;SDS011;30451;48.638;10.624;2022-10-20T10:40:58;3.22;;;1.65;;
44722;SDS011;30451;48.638;10.624;2022-10-20T10:46:20;2.33;;;1.50;;
44722;SDS011;30451;48.638;10.624;2022-10-20T10:51:58;3.00;;;1.92;;
44722;SDS011;30451;48.638;10.624;2022-10-20T10:54:55;2.13;;;1.63;;
44722;SDS011;30451;48.638;10.624;2022-10-20T10:57:44;2.83;;;1.65;;
44722;SDS011;30451;48.638;10.624;2022-10-20T11:00:31;3.38;;;1.75;;
44722;SDS011;30451;48.638;10.624;2022-10-20T11:09:19;2.22;;;1.40;;
44722;SDS011;30451;48.638;10.624;2022-10-20T11:12:07;2.10;;;1.40;;
44722;SDS011;30451;48.638;10.624;2022-10-20T11:14:53;2.50;;;1.60;;
44722;SDS011;30451;48.638;10.624;2022-10-20T11:17:54;2.70;;;1.63;;
44722;SDS011;30451;48.638;10.624;2022-10-20T11:21:03;2.35;;;1.30;;
44722;SDS011;30451;48.638;10.624;2022-10-20T11:28:59;2.58;;;1.70;;
44722;SDS011;30451;48.638;10.624;2022-10-20T11:34:02;2.33;;;1.50;;
44722;SDS011;30451;48.638;10.624;2022-10-20T11:36:30;1.83;;;1.42;;
44722;SDS011;30451;48.638;10.624;2022-10-20T11:39:00;2.67;;;1.45;;
44722;SDS011;30451;48.638;10.624;2022-10-20T11:41:37;2.95;;;1.60;;
44722;SDS011;30451;48.638;10.624;2022-10-20T11:44:17;2.75;;;1.60;;
44722;SDS011;30451;48.638;10.624;2022-10-20T11:46:54;2.00;;;1.50;;
44722;SDS011;30451;48.638;10.624;2022-10-20T11:49:24;2.25;;;1.45;;
44722;SDS011;30451;48.638;10.624;2022-10-20T11:54:45;2.22;;;1.50;;
44722;SDS011;30451;48.638;10.624;2022-10-20T12:11:04;2.00;;;1.52;;
44722;SDS011;30451;48.638;10.624;2022-10-20T12:19:16;2.00;;;1.42;;
44722;SDS011;30451;48.638;10.624;2022-10-20T12:21:56;2.03;;;1.40;;
44722;SDS011;30451;48.638;10.624;2022-10-20T12:27:15;2.40;;;1.60;;
44722;SDS011;30451;48.638;10.624;2022-10-20T12:29:53;1.90;;;1.40;;
44722;SDS011;30451;48.638;10.624;2022-10-20T12:32:24;2.20;;;1.50;;
44722;SDS011;30451;48.638;10.624;2022-10-20T12:35:25;2.53;;;1.60;;
44722;SDS011;30451;48.638;10.624;2022-10-20T12:37:56;4.05;;;1.88;;
44722;SDS011;30451;48.638;10.624;2022-10-20T12:43:23;2.63;;;1.55;;
44722;SDS011;30451;48.638;10.624;2022-10-20T12:46:05;1.77;;;1.30;;
44722;SDS011;30451;48.638;10.624;2022-10-20T12:48:34;2.53;;;1.80;;
44722;SDS011;30451;48.638;10.624;2022-10-20T12:51:06;1.98;;;1.48;;
44722;SDS011;30451;48.638;10.624;2022-10-20T12:53:39;1.95;;;1.25;;
44722;SDS011;30451;48.638;10.624;2022-10-20T12:56:09;2.33;;;1.50;;
44722;SDS011;30451;48.638;10.624;2022-10-20T12:58:37;2.85;;;1.60;;
44722;SDS011;30451;48.638;10.624;2022-10-20T13:01:23;2.03;;;1.52;;
44722;SDS011;30451;48.638;10.624;2022-10-20T13:03:49;2.05;;;1.55;;
44722;SDS011;30451;48.638;10.624;2022-10-20T13:09:21;3.00;;;1.30;;
44722;SDS011;30451;48.638;10.624;2022-10-20T13:11:50;3.25;;;1.65;;
44722;SDS011;30451;48.638;10.624;2022-10-20T13:17:10;3.00;;;1.67;;
44722;SDS011;30451;48.638;10.624;2022-10-20T13:22:39;2.22;;;1.42;;
44722;SDS011;30451;48.638;10.624;2022-10-20T13:25:15;2.78;;;1.80;;
44722;SDS011;30451;48.638;10.624;2022-10-20T13:27:42;2.33;;;1.52;;
44722;SDS011;30451;48.638;10.624;2022-10-20T13:30:08;2.25;;;1.50;;
44722;SDS011;30451;48.638;10.624;2022-10-20T13:35:46;2.25;;;1.67;;
44722;SDS011;30451;48.638;10.624;2022-10-20T13:39:00;2.30;;;1.55;;
44722;SDS011;30451;48.638;10.624;2022-10-20T13:44:09;2.40;;;1.50;;
44722;SDS011;30451;48.638;10.624;2022-10-20T13:47:04;1.83;;;1.40;;
44722;SDS011;30451;48.638;10.624;2022-10-20T13:52:18;2.17;;;1.67;;
44722;SDS011;30451;48.638;10.624;2022-10-20T13:54:46;2.67;;;1.45;;
44722;SDS011;30451;48.638;10.624;2022-10-20T14:02:29;2.40;;;1.48;;
44722;SDS011;30451;48.638;10.624;2022-10-20T14:05:01;2.80;;;1.35;;
44722;SDS011;30451;48.638;10.624;2022-10-20T14:07:46;2.35;;;1.33;;
44722;SDS011;30451;48.638;10.624;2022-10-20T14:10:25;1.95;;;1.35;;
44722;SDS011;30451;48.638;10.624;2022-10-20T14:12:52;2.30;;;1.35;;
44722;SDS011;30451;48.638;10.624;2022-10-20T14:15:21;2.42;;;1.60;;
44722;SDS011;30451;48.638;10.624;2022-10-20T14:17:54;3.40;;;1.50;;
44722;SDS011;30451;48.638;10.624;2022-10-20T14:20:26;2.67;;;1.70;;
44722;SDS011;30451;48.638;10.624;2022-10-20T14:22:53;2.35;;;1.65;;
44722;SDS011;30451;48.638;10.624;2022-10-20T14:25:21;1.95;;;1.40;;
44722;SDS011;30451;48.638;10.624;2022-10-20T14:27:47;2.80;;;1.60;;
44722;SDS011;30451;48.638;10.624;2022-10-20T14:30:15;2.60;;;1.50;;
44722;SDS011;30451;48.638;10.624;2022-10-20T14:32:43;2.50;;;1.40;;
44722;SDS011;30451;48.638;10.624;2022-10-20T14:37:57;2.42;;;1.65;;
44722;SDS011;30451;48.638;10.624;2022-10-20T14:40:25;2.60;;;1.50;;
44722;SDS011;30451;48.638;10.624;2022-10-20T14:42:56;2.40;;;1.60;;
44722;SDS011;30451;48.638;10.624;2022-10-20T14:45:25;2.13;;;1.45;;
44722;SDS011;30451;48.638;10.624;2022-10-20T14:47:52;2.28;;;1.50;;
44722;SDS011;30451;48.638;10.624;2022-10-20T14:50:31;2.38;;;1.60;;
44722;SDS011;30451;48.638;10.624;2022-10-20T14:53:17;3.05;;;1.60;;
44722;SDS011;30451;48.638;10.624;2022-10-20T14:55:43;1.58;;;1.27;;
44722;SDS011;30451;48.638;10.624;2022-10-20T15:01:11;2.55;;;1.40;;
44722;SDS011;30451;48.638;10.624;2022-10-20T15:03:38;2.10;;;1.50;;
44722;SDS011;30451;48.638;10.624;2022-10-20T15:06:07;2.70;;;1.58;;
44722;SDS011;30451;48.638;10.624;2022-10-20T15:08:36;1.77;;;1.27;;
44722;SDS011;30451;48.638;10.624;2022-10-20T15:11:01;2.03;;;1.38;;
44722;SDS011;30451;48.638;10.624;2022-10-20T15:13:28;2.53;;;1.55;;
44722;SDS011;30451;48.638;10.624;2022-10-20T15:15:59;2.30;;;1.40;;
44722;SDS011;30451;48.638;10.624;2022-10-20T15:18:26;2.45;;;1.50;;
44722;SDS011;30451;48.638;10.624;2022-10-20T15:20:53;2.15;;;1.45;;
44722;SDS011;30451;48.638;10.624;2022-10-20T15:23:21;2.35;;;1.48;;
44722;SDS011;30451;48.638;10.624;2022-10-20T15:25:57;3.27;;;1.47;;
44722;SDS011;30451;48.638;10.624;2022-10-20T15:28:37;2.60;;;1.40;;
44722;SDS011;30451;48.638;10.624;2022-10-20T15:31:06;3.35;;;1.50;;
44722;SDS011;30451;48.638;10.624;2022-10-20T15:36:13;2.88;;;1.55;;
44722;SDS011;30451;48.638;10.624;2022-10-20T15:38:45;1.92;;;1.30;;
44722;SDS011;30451;48.638;10.624;2022-10-20T15:41:14;2.42;;;1.52;;
44722;SDS011;30451;48.638;10.624;2022-10-20T15:43:42;2.72;;;1.50;;
44722;SDS011;30451;48.638;10.624;2022-10-20T15:46:11;2.47;;;1.30;;
44722;SDS011;30451;48.638;10.624;2022-10-20T15:48:38;2.83;;;1.80;;
44722;SDS011;30451;48.638;10.624;2022-10-20T15:51:04;3.10;;;1.60;;
44722;SDS011;30451;48.638;10.624;2022-10-20T15:53:45;2.53;;;1.40;;
44722;SDS011;30451;48.638;10.624;2022-10-20T15:56:13;2.70;;;1.90;;
44722;SDS011;30451;48.638;10.624;2022-10-20T15:58:39;2.65;;;1.70;;
44722;SDS011;30451;48.638;10.624;2022-10-20T16:01:04;2.70;;;1.50;;
44722;SDS011;30451;48.638;10.624;2022-10-20T16:03:30;2.60;;;1.60;;
44722;SDS011;30451;48.638;10.624;2022-10-20T16:05:55;2.70;;;1.40;;
44722;SDS011;30451;48.638;10.624;2022-10-20T16:08:21;2.45;;;1.50;;
44722;SDS011;30451;48.638;10.624;2022-10-20T16:10:47;2.50;;;1.60;;
44722;SDS011;30451;48.638;10.624;2022-10-20T16:13:12;2.58;;;1.50;;
44722;SDS011;30451;48.638;10.624;2022-10-20T16:15:39;2.72;;;1.50;;
44722;SDS011;30451;48.638;10.624;2022-10-20T16:18:05;2.58;;;1.60;;
44722;SDS011;30451;48.638;10.624;2022-10-20T16:20:31;2.42;;;1.42;;
44722;SDS011;30451;48.638;10.624;2022-10-20T16:22:56;3.30;;;1.60;;
44722;SDS011;30451;48.638;10.624;2022-10-20T16:25:22;2.50;;;1.60;;
44722;SDS011;30451;48.638;10.624;2022-10-20T16:27:48;2.38;;;1.58;;
44722;SDS011;30451;48.638;10.624;2022-10-20T16:30:13;2.75;;;1.67;;
44722;SDS011;30451;48.638;10.624;2022-10-20T16:32:40;2.58;;;1.65;;
44722;SDS011;30451;48.638;10.624;2022-10-20T16:35:06;2.55;;;1.58;;
44722;SDS011;30451;48.638;10.624;2022-10-20T16:37:32;3.33;;;1.65;;
44722;SDS011;30451;48.638;10.624;2022-10-20T16:39:58;2.33;;;1.40;;